Rockhampton Airport
YBRK : now visible

Airfield :











YOU CAN JOIN US ON...

 
LOGIN :

Register | Disclaimer

   EN    FR    IT 

 









Legend :    VFR   Marginal VFR   IFR   Intensive IFR   Very Intensive IFR
Visi :
Ceiling :
>= 8 km
>= 3000ft
5 to 8 km
1000 to 3000 ft
1500m to 5 km
500 to 1000 ft
800 to 1500m
200 to 500 ft
< 800m
< 200 ft
Symbols :   Thunderstorms  Fog  Heavy snow  Heavy precipitations  Wind > 20 kt






- Airport Elevation : 34 ft
- IATA code : ROK


YBRK - Rockhampton

CURRENT METAR :
  • 012300Z AUTO 20004KT 140V240 9999 RA SCT003 SCT013 OVC064 17/17 Q1018

EXPIRED METARs :
  • 012200Z AUTO 16002KT 9999 -RA OVC064 17/16 Q1018 RF00.2/035.8
  • 011630Z AUTO 16005KT 4500 DZ BR SCT005 BKN036 OVC044 17/16 Q1018
  • 012141Z AUTO 15004KT 9999 -RA SCT051 OVC064 17/16 Q1018
  • 012130Z AUTO 16005KT 6000 RA SCT046 BKN052 OVC062 17/16 Q1018
  • 012100Z AUTO 21004KT 6000 DZ BKN046 OVC054 17/16 Q1018 RERA
  • 012030Z AUTO 23003KT 6000 RA SCT016 BKN033 BKN042 17/16 Q1018

TAF AMD TAF YBRK
Valid from the 01 at 18:00 until the 02 at 18:00 UTC


011715Z 0118/0218 15005KT 5000 RA BKN008
FM020600 20008KT 9999 -RA BKN016
TEMPO 0118/0206 3000 RA BKN003
YBBB FIR / Oceania



MET'MAP, your aeronautical weather chart ! - Copyright ORBIFLY December 2007 - Disclaimer

ORBIFLY MET'MAP TEAM :

Programming & Development : Alexandra Zaïnal
Original concept : Baudouin d'Aumeries
Technical & hardware support : Manuel Goepfert
Assistance : Marc-Olivier Méhu




SOURCES & CREDITS :

   NOAA       Earth
Advisory